Terminal Aerodrome Forecast
Issued by NWS

Home | Current Version | Previous Version | Text Only | Print | Product List | Glossary On
Versions: 1 2 3 4 5 6 7 8 9 10 11 12 13
000
FTUS42 KJAX 281300 AAB
TAFCRG
TAF AMD
KCRG 281343Z 2814/2912 22004KT 1/4SM FG OVC002
     FM281530 21005KT 5SM BR SCT010
     FM281700 23007KT P6SM SCT035 BKN250
     FM290000 23003KT P6SM BKN035=

USA.gov is the U.S. government's official web portal to all federal, state and local government web resources and services.